sensor_id;sensor_type;location;lat;lon;timestamp;pressure;altitude;pressure_sealevel;temperature;humidity
20019;BME280;10170;42.502;26.526;2023-03-23T00:01:15;99693.06;;;8.15;100.00
20019;BME280;10170;42.502;26.526;2023-03-23T00:03:49;99692.63;;;8.11;100.00
20019;BME280;10170;42.502;26.526;2023-03-23T00:06:16;99695.28;;;8.11;100.00
20019;BME280;10170;42.502;26.526;2023-03-23T00:08:46;99690.63;;;8.13;100.00
20019;BME280;10170;42.502;26.526;2023-03-23T00:11:12;99687.81;;;8.21;100.00
20019;BME280;10170;42.502;26.526;2023-03-23T00:13:41;99687.78;;;8.15;100.00
20019;BME280;10170;42.502;26.526;2023-03-23T00:16:08;99688.06;;;8.05;100.00
20019;BME280;10170;42.502;26.526;2023-03-23T00:18:47;99677.25;;;8.00;100.00
20019;BME280;10170;42.502;26.526;2023-03-23T00:21:21;99688.97;;;8.12;100.00
20019;BME280;10170;42.502;26.526;2023-03-23T00:23:59;99677.72;;;8.25;100.00
20019;BME280;10170;42.502;26.526;2023-03-23T00:26:25;99690.00;;;8.11;100.00
20019;BME280;10170;42.502;26.526;2023-03-23T00:28:54;99688.97;;;8.12;100.00
20019;BME280;10170;42.502;26.526;2023-03-23T00:31:19;99685.97;;;8.15;100.00
20019;BME280;10170;42.502;26.526;2023-03-23T00:33:45;99668.56;;;8.06;100.00
20019;BME280;10170;42.502;26.526;2023-03-23T00:36:12;99678.16;;;8.28;100.00
20019;BME280;10170;42.502;26.526;2023-03-23T00:38:39;99671.56;;;8.03;100.00
20019;BME280;10170;42.502;26.526;2023-03-23T00:41:05;99676.34;;;8.14;100.00
20019;BME280;10170;42.502;26.526;2023-03-23T00:43:32;99674.72;;;8.13;100.00
20019;BME280;10170;42.502;26.526;2023-03-23T00:46:02;99665.56;;;8.16;100.00
20019;BME280;10170;42.502;26.526;2023-03-23T00:48:34;99662.03;;;8.09;100.00
20019;BME280;10170;42.502;26.526;2023-03-23T00:51:01;99673.91;;;8.13;100.00
20019;BME280;10170;42.502;26.526;2023-03-23T00:53:32;99662.69;;;8.11;100.00
20019;BME280;10170;42.502;26.526;2023-03-23T00:55:58;99666.97;;;8.12;100.00
20019;BME280;10170;42.502;26.526;2023-03-23T00:58:24;99662.38;;;7.99;100.00
20019;BME280;10170;42.502;26.526;2023-03-23T01:00:49;99662.63;;;8.04;100.00
20019;BME280;10170;42.502;26.526;2023-03-23T01:03:15;99658.44;;;8.16;100.00
20019;BME280;10170;42.502;26.526;2023-03-23T01:05:44;99665.16;;;8.33;100.00
20019;BME280;10170;42.502;26.526;2023-03-23T01:08:13;99661.53;;;8.20;100.00
20019;BME280;10170;42.502;26.526;2023-03-23T01:10:39;99649.81;;;8.08;100.00
20019;BME280;10170;42.502;26.526;2023-03-23T01:13:06;99663.34;;;8.19;100.00
20019;BME280;10170;42.502;26.526;2023-03-23T01:15:32;99662.91;;;8.16;100.00
20019;BME280;10170;42.502;26.526;2023-03-23T01:17:58;99664.69;;;8.09;100.00
20019;BME280;10170;42.502;26.526;2023-03-23T01:20:24;99660.22;;;8.09;100.00
20019;BME280;10170;42.502;26.526;2023-03-23T01:22:52;99654.72;;;8.11;100.00
20019;BME280;10170;42.502;26.526;2023-03-23T01:25:18;99665.75;;;8.14;100.00
20019;BME280;10170;42.502;26.526;2023-03-23T01:27:44;99668.84;;;8.18;100.00
20019;BME280;10170;42.502;26.526;2023-03-23T01:30:11;99654.41;;;8.20;100.00
20019;BME280;10170;42.502;26.526;2023-03-23T01:32:38;99656.81;;;8.15;100.00
20019;BME280;10170;42.502;26.526;2023-03-23T01:35:04;99663.09;;;8.29;100.00
20019;BME280;10170;42.502;26.526;2023-03-23T01:37:30;99654.63;;;8.19;100.00
20019;BME280;10170;42.502;26.526;2023-03-23T01:39:56;99662.47;;;8.12;100.00
20019;BME280;10170;42.502;26.526;2023-03-23T01:42:30;99651.97;;;8.19;100.00
20019;BME280;10170;42.502;26.526;2023-03-23T01:48:24;99653.56;;;8.34;100.00
20019;BME280;10170;42.502;26.526;2023-03-23T01:53:17;99651.69;;;8.14;100.00
20019;BME280;10170;42.502;26.526;2023-03-23T01:55:44;99654.19;;;8.15;100.00
20019;BME280;10170;42.502;26.526;2023-03-23T01:58:14;99649.41;;;8.25;100.00
20019;BME280;10170;42.502;26.526;2023-03-23T02:00:41;99654.34;;;8.14;100.00
20019;BME280;10170;42.502;26.526;2023-03-23T02:03:08;99652.66;;;8.06;100.00
20019;BME280;10170;42.502;26.526;2023-03-23T02:05:38;99657.19;;;8.12;100.00
20019;BME280;10170;42.502;26.526;2023-03-23T02:08:06;99653.19;;;8.23;100.00
20019;BME280;10170;42.502;26.526;2023-03-23T02:10:34;99652.72;;;8.13;100.00
20019;BME280;10170;42.502;26.526;2023-03-23T02:13:02;99649.75;;;8.22;100.00
20019;BME280;10170;42.502;26.526;2023-03-23T02:15:45;99648.88;;;8.15;100.00
20019;BME280;10170;42.502;26.526;2023-03-23T02:27:01;99660.19;;;8.51;100.00
20019;BME280;10170;42.502;26.526;2023-03-23T02:35:07;99669.28;;;8.64;100.00
20019;BME280;10170;42.502;26.526;2023-03-23T02:37:49;99665.22;;;8.68;100.00
20019;BME280;10170;42.502;26.526;2023-03-23T02:40:20;99672.00;;;8.77;100.00
20019;BME280;10170;42.502;26.526;2023-03-23T02:42:49;99668.16;;;8.79;100.00
20019;BME280;10170;42.502;26.526;2023-03-23T02:45:19;99680.34;;;8.74;100.00
20019;BME280;10170;42.502;26.526;2023-03-23T02:47:48;99684.06;;;8.79;100.00
20019;BME280;10170;42.502;26.526;2023-03-23T02:50:16;99659.34;;;8.72;100.00
20019;BME280;10170;42.502;26.526;2023-03-23T02:52:45;99681.94;;;8.96;100.00
20019;BME280;10170;42.502;26.526;2023-03-23T02:55:13;99682.91;;;8.88;100.00
20019;BME280;10170;42.502;26.526;2023-03-23T02:57:39;99682.88;;;8.82;100.00
20019;BME280;10170;42.502;26.526;2023-03-23T03:00:07;99687.44;;;8.94;100.00
20019;BME280;10170;42.502;26.526;2023-03-23T03:02:38;99677.88;;;8.66;100.00
20019;BME280;10170;42.502;26.526;2023-03-23T03:05:30;99681.47;;;8.58;100.00
20019;BME280;10170;42.502;26.526;2023-03-23T03:08:01;99687.03;;;8.70;100.00
20019;BME280;10170;42.502;26.526;2023-03-23T03:10:38;99682.13;;;8.67;100.00
20019;BME280;10170;42.502;26.526;2023-03-23T03:13:31;99691.19;;;8.79;100.00
20019;BME280;10170;42.502;26.526;2023-03-23T03:18:56;99684.47;;;8.76;100.00
20019;BME280;10170;42.502;26.526;2023-03-23T03:21:27;99681.53;;;8.99;100.00
20019;BME280;10170;42.502;26.526;2023-03-23T03:23:55;99682.50;;;8.91;100.00
20019;BME280;10170;42.502;26.526;2023-03-23T03:26:26;99687.03;;;8.97;100.00
20019;BME280;10170;42.502;26.526;2023-03-23T03:28:55;99684.22;;;9.05;100.00
20019;BME280;10170;42.502;26.526;2023-03-23T03:31:28;99683.66;;;9.10;100.00
20019;BME280;10170;42.502;26.526;2023-03-23T03:33:56;99697.53;;;9.12;100.00
20019;BME280;10170;42.502;26.526;2023-03-23T03:36:28;99691.00;;;9.14;100.00
20019;BME280;10170;42.502;26.526;2023-03-23T03:39:02;99702.19;;;8.76;100.00
20019;BME280;10170;42.502;26.526;2023-03-23T03:41:29;99704.09;;;8.61;100.00
20019;BME280;10170;42.502;26.526;2023-03-23T03:43:54;99695.91;;;8.56;100.00
20019;BME280;10170;42.502;26.526;2023-03-23T03:46:20;99700.84;;;8.59;100.00
20019;BME280;10170;42.502;26.526;2023-03-23T03:48:46;99699.06;;;8.44;100.00
20019;BME280;10170;42.502;26.526;2023-03-23T03:51:11;99705.66;;;8.27;100.00
20019;BME280;10170;42.502;26.526;2023-03-23T03:53:37;99689.94;;;8.05;100.00
20019;BME280;10170;42.502;26.526;2023-03-23T03:56:03;99708.22;;;8.21;100.00
20019;BME280;10170;42.502;26.526;2023-03-23T03:58:29;99705.56;;;8.21;100.00
20019;BME280;10170;42.502;26.526;2023-03-23T04:00:58;99714.06;;;8.16;100.00
20019;BME280;10170;42.502;26.526;2023-03-23T04:03:24;99713.31;;;8.22;100.00
20019;BME280;10170;42.502;26.526;2023-03-23T04:05:51;99716.50;;;8.32;100.00
20019;BME280;10170;42.502;26.526;2023-03-23T04:08:16;99715.22;;;8.28;100.00
20019;BME280;10170;42.502;26.526;2023-03-23T04:10:43;99717.53;;;8.17;100.00
20019;BME280;10170;42.502;26.526;2023-03-23T04:13:08;99704.06;;;8.12;100.00
20019;BME280;10170;42.502;26.526;2023-03-23T04:15:34;99707.66;;;8.25;100.00
20019;BME280;10170;42.502;26.526;2023-03-23T04:18:00;99692.50;;;8.19;100.00
20019;BME280;10170;42.502;26.526;2023-03-23T04:20:25;99707.66;;;8.25;100.00
20019;BME280;10170;42.502;26.526;2023-03-23T04:22:52;99705.03;;;8.25;100.00
20019;BME280;10170;42.502;26.526;2023-03-23T04:25:20;99711.16;;;8.26;100.00
20019;BME280;10170;42.502;26.526;2023-03-23T04:27:47;99702.25;;;8.33;100.00
20019;BME280;10170;42.502;26.526;2023-03-23T04:30:22;99707.00;;;8.23;100.00
20019;BME280;10170;42.502;26.526;2023-03-23T04:32:50;99720.72;;;8.27;100.00
20019;BME280;10170;42.502;26.526;2023-03-23T04:35:19;99720.66;;;8.41;100.00
20019;BME280;10170;42.502;26.526;2023-03-23T04:37:46;99726.97;;;8.40;100.00
20019;BME280;10170;42.502;26.526;2023-03-23T04:40:12;99728.84;;;8.46;100.00
20019;BME280;10170;42.502;26.526;2023-03-23T04:42:41;99732.44;;;8.39;100.00
20019;BME280;10170;42.502;26.526;2023-03-23T04:45:13;99725.41;;;8.46;100.00
20019;BME280;10170;42.502;26.526;2023-03-23T04:47:40;99730.16;;;8.57;100.00
20019;BME280;10170;42.502;26.526;2023-03-23T04:50:12;99733.59;;;8.51;100.00
20019;BME280;10170;42.502;26.526;2023-03-23T04:52:39;99731.31;;;8.48;100.00
20019;BME280;10170;42.502;26.526;2023-03-23T04:55:07;99734.22;;;8.53;100.00
20019;BME280;10170;42.502;26.526;2023-03-23T04:57:33;99713.97;;;8.73;100.00
20019;BME280;10170;42.502;26.526;2023-03-23T05:00:01;99738.63;;;8.95;100.00
20019;BME280;10170;42.502;26.526;2023-03-23T05:02:33;99733.09;;;8.90;100.00
20019;BME280;10170;42.502;26.526;2023-03-23T05:04:59;99739.25;;;8.69;100.00
20019;BME280;10170;42.502;26.526;2023-03-23T05:07:25;99743.03;;;8.81;100.00
20019;BME280;10170;42.502;26.526;2023-03-23T05:09:50;99744.66;;;8.82;100.00
20019;BME280;10170;42.502;26.526;2023-03-23T05:12:16;99750.88;;;8.96;100.00
20019;BME280;10170;42.502;26.526;2023-03-23T05:14:41;99748.88;;;8.98;100.00
20019;BME280;10170;42.502;26.526;2023-03-23T05:17:07;99752.66;;;9.16;100.00
20019;BME280;10170;42.502;26.526;2023-03-23T05:19:35;99759.25;;;9.27;100.00
20019;BME280;10170;42.502;26.526;2023-03-23T05:22:01;99760.50;;;9.31;100.00
20019;BME280;10170;42.502;26.526;2023-03-23T05:24:29;99769.78;;;9.14;100.00
20019;BME280;10170;42.502;26.526;2023-03-23T05:26:58;99771.59;;;8.86;100.00
20019;BME280;10170;42.502;26.526;2023-03-23T05:29:24;99766.16;;;8.94;100.00
20019;BME280;10170;42.502;26.526;2023-03-23T05:31:51;99769.69;;;9.01;100.00
20019;BME280;10170;42.502;26.526;2023-03-23T05:34:19;99775.75;;;8.95;100.00
20019;BME280;10170;42.502;26.526;2023-03-23T05:36:45;99763.34;;;9.02;100.00
20019;BME280;10170;42.502;26.526;2023-03-23T05:39:11;99771.84;;;9.18;100.00
20019;BME280;10170;42.502;26.526;2023-03-23T05:41:39;99779.78;;;9.12;100.00
20019;BME280;10170;42.502;26.526;2023-03-23T05:44:04;99743.88;;;8.88;100.00
20019;BME280;10170;42.502;26.526;2023-03-23T05:46:31;99784.13;;;9.19;100.00
20019;BME280;10170;42.502;26.526;2023-03-23T05:48:57;99789.88;;;9.29;100.00
20019;BME280;10170;42.502;26.526;2023-03-23T05:51:23;99789.59;;;9.18;100.00
20019;BME280;10170;42.502;26.526;2023-03-23T05:53:49;99787.41;;;9.00;100.00
20019;BME280;10170;42.502;26.526;2023-03-23T05:56:14;99782.34;;;8.78;100.00
20019;BME280;10170;42.502;26.526;2023-03-23T05:58:40;99774.19;;;8.79;100.00
20019;BME280;10170;42.502;26.526;2023-03-23T06:01:06;99780.28;;;9.01;100.00
20019;BME280;10170;42.502;26.526;2023-03-23T06:03:32;99779.81;;;8.91;100.00
20019;BME280;10170;42.502;26.526;2023-03-23T06:06:01;99791.91;;;9.27;100.00
20019;BME280;10170;42.502;26.526;2023-03-23T06:08:27;99778.16;;;8.90;100.00
20019;BME280;10170;42.502;26.526;2023-03-23T06:10:52;99800.59;;;9.15;100.00
20019;BME280;10170;42.502;26.526;2023-03-23T06:13:19;99803.47;;;9.20;100.00
20019;BME280;10170;42.502;26.526;2023-03-23T06:15:44;99808.34;;;9.16;100.00
20019;BME280;10170;42.502;26.526;2023-03-23T06:18:10;99801.19;;;9.10;100.00
20019;BME280;10170;42.502;26.526;2023-03-23T06:20:38;99800.47;;;9.02;100.00
20019;BME280;10170;42.502;26.526;2023-03-23T06:23:04;99807.84;;;9.00;100.00
20019;BME280;10170;42.502;26.526;2023-03-23T06:25:31;99813.91;;;8.94;100.00
20019;BME280;10170;42.502;26.526;2023-03-23T06:27:56;99805.34;;;8.98;100.00
20019;BME280;10170;42.502;26.526;2023-03-23T06:30:23;99812.81;;;8.88;100.00
20019;BME280;10170;42.502;26.526;2023-03-23T06:32:48;99814.66;;;8.88;100.00
20019;BME280;10170;42.502;26.526;2023-03-23T06:35:14;99793.06;;;8.70;100.00
20019;BME280;10170;42.502;26.526;2023-03-23T06:37:40;99814.41;;;8.83;100.00
20019;BME280;10170;42.502;26.526;2023-03-23T06:40:07;99819.31;;;8.86;100.00
20019;BME280;10170;42.502;26.526;2023-03-23T06:42:33;99806.44;;;8.83;100.00
20019;BME280;10170;42.502;26.526;2023-03-23T06:44:59;99820.72;;;8.82;100.00
20019;BME280;10170;42.502;26.526;2023-03-23T06:47:27;99817.44;;;8.80;100.00
20019;BME280;10170;42.502;26.526;2023-03-23T06:49:55;99820.78;;;8.88;100.00
20019;BME280;10170;42.502;26.526;2023-03-23T06:52:22;99820.91;;;8.80;100.00
20019;BME280;10170;42.502;26.526;2023-03-23T06:54:51;99819.50;;;8.84;100.00
20019;BME280;10170;42.502;26.526;2023-03-23T06:57:18;99824.56;;;8.79;100.00
20019;BME280;10170;42.502;26.526;2023-03-23T06:59:44;99825.88;;;8.90;100.00
20019;BME280;10170;42.502;26.526;2023-03-23T07:02:13;99827.63;;;9.04;100.00
20019;BME280;10170;42.502;26.526;2023-03-23T07:04:39;99822.56;;;9.30;100.00
20019;BME280;10170;42.502;26.526;2023-03-23T07:07:09;99816.28;;;9.10;100.00
20019;BME280;10170;42.502;26.526;2023-03-23T07:09:36;99809.84;;;9.25;100.00
20019;BME280;10170;42.502;26.526;2023-03-23T07:12:02;99808.09;;;9.05;100.00
20019;BME280;10170;42.502;26.526;2023-03-23T07:14:28;99823.88;;;8.92;100.00
20019;BME280;10170;42.502;26.526;2023-03-23T07:16:54;99830.88;;;8.99;100.00
20019;BME280;10170;42.502;26.526;2023-03-23T07:19:19;99832.88;;;9.18;100.00
20019;BME280;10170;42.502;26.526;2023-03-23T07:21:45;99827.88;;;9.30;100.00
20019;BME280;10170;42.502;26.526;2023-03-23T07:24:12;99834.47;;;9.40;100.00
20019;BME280;10170;42.502;26.526;2023-03-23T07:26:42;99838.47;;;9.30;100.00
20019;BME280;10170;42.502;26.526;2023-03-23T07:29:08;99829.44;;;9.24;100.00
20019;BME280;10170;42.502;26.526;2023-03-23T07:31:34;99841.06;;;9.51;100.00
20019;BME280;10170;42.502;26.526;2023-03-23T07:34:00;99837.06;;;9.62;100.00
20019;BME280;10170;42.502;26.526;2023-03-23T07:36:26;99843.19;;;9.62;100.00
20019;BME280;10170;42.502;26.526;2023-03-23T07:38:52;99848.97;;;9.72;100.00
20019;BME280;10170;42.502;26.526;2023-03-23T07:41:18;99852.66;;;9.78;100.00
20019;BME280;10170;42.502;26.526;2023-03-23T07:43:45;99841.69;;;9.53;100.00
20019;BME280;10170;42.502;26.526;2023-03-23T07:46:11;99861.69;;;9.83;100.00
20019;BME280;10170;42.502;26.526;2023-03-23T07:48:38;99860.53;;;9.92;100.00
20019;BME280;10170;42.502;26.526;2023-03-23T07:51:05;99863.09;;;10.13;100.00
20019;BME280;10170;42.502;26.526;2023-03-23T07:53:32;99862.72;;;10.16;100.00
20019;BME280;10170;42.502;26.526;2023-03-23T07:55:58;99854.00;;;9.95;100.00
20019;BME280;10170;42.502;26.526;2023-03-23T07:58:24;99870.53;;;9.97;100.00
20019;BME280;10170;42.502;26.526;2023-03-23T08:00:52;99866.59;;;9.86;100.00
20019;BME280;10170;42.502;26.526;2023-03-23T08:03:18;99877.28;;;9.93;100.00
20019;BME280;10170;42.502;26.526;2023-03-23T08:05:44;99875.75;;;10.11;100.00
20019;BME280;10170;42.502;26.526;2023-03-23T08:08:09;99867.72;;;10.32;100.00
20019;BME280;10170;42.502;26.526;2023-03-23T08:10:35;99880.59;;;10.35;100.00
20019;BME280;10170;42.502;26.526;2023-03-23T08:13:02;99882.97;;;10.17;100.00
20019;BME280;10170;42.502;26.526;2023-03-23T08:15:28;99882.69;;;10.46;100.00
20019;BME280;10170;42.502;26.526;2023-03-23T08:17:54;99882.84;;;10.38;100.00
20019;BME280;10170;42.502;26.526;2023-03-23T08:20:21;99864.56;;;10.22;100.00
20019;BME280;10170;42.502;26.526;2023-03-23T08:22:55;99878.78;;;10.49;100.00
20019;BME280;10170;42.502;26.526;2023-03-23T08:25:23;99885.69;;;10.37;100.00
20019;BME280;10170;42.502;26.526;2023-03-23T08:27:50;99870.69;;;10.16;100.00
20019;BME280;10170;42.502;26.526;2023-03-23T08:30:18;99893.13;;;10.54;100.00
20019;BME280;10170;42.502;26.526;2023-03-23T08:32:45;99885.34;;;10.46;100.00
20019;BME280;10170;42.502;26.526;2023-03-23T08:35:12;99894.28;;;10.32;100.00
20019;BME280;10170;42.502;26.526;2023-03-23T08:37:39;99897.44;;;10.62;100.00
20019;BME280;10170;42.502;26.526;2023-03-23T08:40:08;99883.09;;;10.56;100.00
20019;BME280;10170;42.502;26.526;2023-03-23T08:42:37;99885.34;;;10.46;100.00
20019;BME280;10170;42.502;26.526;2023-03-23T08:45:05;99885.81;;;10.76;100.00
20019;BME280;10170;42.502;26.526;2023-03-23T08:47:33;99888.53;;;10.96;100.00
20019;BME280;10170;42.502;26.526;2023-03-23T08:50:01;99898.59;;;11.26;100.00
20019;BME280;10170;42.502;26.526;2023-03-23T08:52:28;99904.31;;;11.17;100.00
20019;BME280;10170;42.502;26.526;2023-03-23T08:54:55;99890.75;;;10.92;100.00
20019;BME280;10170;42.502;26.526;2023-03-23T08:57:20;99901.44;;;11.05;100.00
20019;BME280;10170;42.502;26.526;2023-03-23T08:59:46;99909.03;;;11.15;100.00
20019;BME280;10170;42.502;26.526;2023-03-23T09:02:12;99900.19;;;11.08;100.00
20019;BME280;10170;42.502;26.526;2023-03-23T09:04:39;99902.44;;;10.98;100.00
20019;BME280;10170;42.502;26.526;2023-03-23T09:07:11;99906.97;;;11.04;100.00
20019;BME280;10170;42.502;26.526;2023-03-23T09:09:38;99915.50;;;10.80;100.00
20019;BME280;10170;42.502;26.526;2023-03-23T09:12:08;99910.84;;;11.08;100.00
20019;BME280;10170;42.502;26.526;2023-03-23T09:14:36;99918.63;;;11.03;100.00
20019;BME280;10170;42.502;26.526;2023-03-23T09:17:02;99924.72;;;10.84;100.00
20019;BME280;10170;42.502;26.526;2023-03-23T09:19:29;99910.38;;;10.85;100.00
20019;BME280;10170;42.502;26.526;2023-03-23T09:21:55;99920.69;;;11.14;100.00
20019;BME280;10170;42.502;26.526;2023-03-23T09:24:20;99909.03;;;11.15;100.00
20019;BME280;10170;42.502;26.526;2023-03-23T09:26:46;99919.88;;;11.33;100.00
20019;BME280;10170;42.502;26.526;2023-03-23T09:29:12;99912.72;;;11.46;100.00
20019;BME280;10170;42.502;26.526;2023-03-23T09:31:38;99907.81;;;11.76;100.00
20019;BME280;10170;42.502;26.526;2023-03-23T09:34:06;99890.63;;;11.79;100.00
20019;BME280;10170;42.502;26.526;2023-03-23T09:36:32;99911.28;;;12.03;100.00
20019;BME280;10170;42.502;26.526;2023-03-23T09:38:58;99909.03;;;11.87;100.00
20019;BME280;10170;42.502;26.526;2023-03-23T09:55:13;99920.28;;;11.30;100.00
20019;BME280;10170;42.502;26.526;2023-03-23T10:00:37;99919.69;;;11.28;100.00
20019;BME280;10170;42.502;26.526;2023-03-23T10:03:16;99926.44;;;11.37;100.00
20019;BME280;10170;42.502;26.526;2023-03-23T10:05:46;99920.28;;;11.30;100.00
20019;BME280;10170;42.502;26.526;2023-03-23T10:08:20;99930.34;;;11.34;100.00
20019;BME280;10170;42.502;26.526;2023-03-23T10:11:03;99931.59;;;11.45;100.00
20019;BME280;10170;42.502;26.526;2023-03-23T10:16:11;99910.47;;;11.63;100.00
20019;BME280;10170;42.502;26.526;2023-03-23T10:18:54;99937.31;;;11.55;100.00
20019;BME280;10170;42.502;26.526;2023-03-23T10:21:23;99932.78;;;11.23;100.00
20019;BME280;10170;42.502;26.526;2023-03-23T10:28:54;99922.94;;;11.10;100.00
20019;BME280;10170;42.502;26.526;2023-03-23T10:31:26;99929.25;;;10.96;100.00
20019;BME280;10170;42.502;26.526;2023-03-23T10:34:01;99926.63;;;11.22;100.00
20019;BME280;10170;42.502;26.526;2023-03-23T10:36:35;99918.66;;;11.35;100.00
20019;BME280;10170;42.502;26.526;2023-03-23T10:39:18;99910.88;;;11.40;100.00
20019;BME280;10170;42.502;26.526;2023-03-23T10:41:44;99915.59;;;11.32;100.00
20019;BME280;10170;42.502;26.526;2023-03-23T10:44:21;99915.81;;;11.70;100.00
20019;BME280;10170;42.502;26.526;2023-03-23T10:46:59;99913.56;;;11.53;100.00
20019;BME280;10170;42.502;26.526;2023-03-23T10:49:30;99913.94;;;11.44;100.00
20019;BME280;10170;42.502;26.526;2023-03-23T10:54:37;99918.88;;;11.47;100.00
20019;BME280;10170;42.502;26.526;2023-03-23T10:57:21;99915.41;;;11.46;100.00
20019;BME280;10170;42.502;26.526;2023-03-23T10:59:47;99916.59;;;11.44;100.00
20019;BME280;10170;42.502;26.526;2023-03-23T11:02:18;99915.22;;;11.68;100.00
20019;BME280;10170;42.502;26.526;2023-03-23T11:04:56;99917.03;;;11.54;100.00
20019;BME280;10170;42.502;26.526;2023-03-23T11:07:27;99916.44;;;11.52;100.00
20019;BME280;10170;42.502;26.526;2023-03-23T11:09:56;99914.38;;;11.60;100.00
20019;BME280;10170;42.502;26.526;2023-03-23T11:12:23;99914.59;;;11.79;100.00
20019;BME280;10170;42.502;26.526;2023-03-23T11:14:49;99908.66;;;11.77;100.00
20019;BME280;10170;42.502;26.526;2023-03-23T11:17:26;99919.28;;;11.50;100.00
20019;BME280;10170;42.502;26.526;2023-03-23T11:19:53;99917.03;;;11.54;100.00
20019;BME280;10170;42.502;26.526;2023-03-23T11:22:26;99913.94;;;11.63;100.00
20019;BME280;10170;42.502;26.526;2023-03-23T11:24:54;99898.19;;;11.62;100.00
20019;BME280;10170;42.502;26.526;2023-03-23T11:27:22;99913.75;;;11.91;100.00
20019;BME280;10170;42.502;26.526;2023-03-23T11:29:54;99923.38;;;11.99;100.00
20019;BME280;10170;42.502;26.526;2023-03-23T11:32:25;99915.22;;;11.74;100.00
20019;BME280;10170;42.502;26.526;2023-03-23T11:35:25;99920.72;;;11.99;100.00
20019;BME280;10170;42.502;26.526;2023-03-23T11:37:56;99905.56;;;11.80;100.00
20019;BME280;10170;42.502;26.526;2023-03-23T11:40:25;99915.34;;;12.05;100.00
20019;BME280;10170;42.502;26.526;2023-03-23T11:45:35;99910.34;;;12.41;100.00
20019;BME280;10170;42.502;26.526;2023-03-23T11:56:46;99908.97;;;12.19;100.00
20019;BME280;10170;42.502;26.526;2023-03-23T11:58:47;99900.63;;;12.03;100.00
20019;BME280;10170;42.502;26.526;2023-03-23T12:01:31;99899.88;;;12.40;100.00
20019;BME280;10170;42.502;26.526;2023-03-23T12:04:03;99888.97;;;12.86;100.00
20019;BME280;10170;42.502;26.526;2023-03-23T12:20:45;99902.59;;;12.71;100.00
20019;BME280;10170;42.502;26.526;2023-03-23T12:26:17;99896.47;;;12.70;100.00
20019;BME280;10170;42.502;26.526;2023-03-23T12:43:03;99896.91;;;12.99;100.00
20019;BME280;10170;42.502;26.526;2023-03-23T12:48:07;99893.78;;;13.02;100.00
20019;BME280;10170;42.502;26.526;2023-03-23T12:53:34;99883.34;;;13.00;100.00
20019;BME280;10170;42.502;26.526;2023-03-23T12:56:06;99895.69;;;12.95;100.00
20019;BME280;10170;42.502;26.526;2023-03-23T12:58:40;99884.91;;;13.14;100.00
20019;BME280;10170;42.502;26.526;2023-03-23T13:01:28;99888.47;;;12.70;100.00
20019;BME280;10170;42.502;26.526;2023-03-23T13:03:58;99884.06;;;12.83;100.00
20019;BME280;10170;42.502;26.526;2023-03-23T13:06:41;99883.63;;;12.48;100.00
20019;BME280;10170;42.502;26.526;2023-03-23T13:09:19;99874.31;;;12.19;100.00
20019;BME280;10170;42.502;26.526;2023-03-23T13:11:47;99883.09;;;12.26;100.00
20019;BME280;10170;42.502;26.526;2023-03-23T13:17:11;99878.16;;;12.36;100.00
20019;BME280;10170;42.502;26.526;2023-03-23T13:28:02;99883.91;;;12.71;100.00
20019;BME280;10170;42.502;26.526;2023-03-23T13:30:28;99884.00;;;12.89;100.00
20019;BME280;10170;42.502;26.526;2023-03-23T13:33:05;99884.41;;;12.55;100.00
20019;BME280;10170;42.502;26.526;2023-03-23T13:35:39;99883.03;;;12.84;100.00
20019;BME280;10170;42.502;26.526;2023-03-23T13:38:26;99886.47;;;12.91;100.00
20019;BME280;10170;42.502;26.526;2023-03-23T13:40:54;99878.06;;;12.87;100.00
20019;BME280;10170;42.502;26.526;2023-03-23T13:43:29;99886.44;;;12.97;100.00
20019;BME280;10170;42.502;26.526;2023-03-23T13:46:11;99880.88;;;12.99;100.00
20019;BME280;10170;42.502;26.526;2023-03-23T13:57:02;99874.13;;;12.65;100.00
20019;BME280;10170;42.502;26.526;2023-03-23T14:01:54;99883.34;;;12.62;100.00
20019;BME280;10170;42.502;26.526;2023-03-23T14:04:22;99871.06;;;12.55;100.00
20019;BME280;10170;42.502;26.526;2023-03-23T14:06:51;99875.59;;;12.54;100.00
20019;BME280;10170;42.502;26.526;2023-03-23T14:09:28;99889.91;;;12.66;100.00
20019;BME280;10170;42.502;26.526;2023-03-23T14:12:02;99881.78;;;12.48;100.00
20019;BME280;10170;42.502;26.526;2023-03-23T14:14:49;99884.84;;;12.52;100.00
20019;BME280;10170;42.502;26.526;2023-03-23T14:17:39;99881.72;;;12.61;100.00
20019;BME280;10170;42.502;26.526;2023-03-23T14:20:06;99884.22;;;12.56;100.00
20019;BME280;10170;42.502;26.526;2023-03-23T14:22:35;99871.91;;;12.55;100.00
20019;BME280;10170;42.502;26.526;2023-03-23T14:25:08;99864.81;;;12.36;100.00
20019;BME280;10170;42.502;26.526;2023-03-23T14:27:35;99884.44;;;12.48;100.00
20019;BME280;10170;42.502;26.526;2023-03-23T14:30:12;99882.97;;;12.59;100.00
20019;BME280;10170;42.502;26.526;2023-03-23T14:32:38;99876.72;;;12.40;100.00
20019;BME280;10170;42.502;26.526;2023-03-23T14:35:07;99869.31;;;12.36;100.00
20019;BME280;10170;42.502;26.526;2023-03-23T14:37:34;99868.78;;;12.58;100.00
20019;BME280;10170;42.502;26.526;2023-03-23T14:40:03;99868.59;;;12.60;100.00
20019;BME280;10170;42.502;26.526;2023-03-23T14:42:34;99879.47;;;13.03;100.00
20019;BME280;10170;42.502;26.526;2023-03-23T14:45:02;99881.06;;;12.66;100.00
20019;BME280;10170;42.502;26.526;2023-03-23T14:47:39;99877.78;;;12.70;100.00
20019;BME280;10170;42.502;26.526;2023-03-23T14:50:37;99884.69;;;12.78;100.00
20019;BME280;10170;42.502;26.526;2023-03-23T14:53:12;99880.06;;;12.60;100.00
20019;BME280;10170;42.502;26.526;2023-03-23T14:55:42;99879.56;;;12.45;100.00